UUWWUNKL

Guest
Details From UUWW - Vnukovo
To UNKL - Yemelyanovo
Flight Number -
Tags Generated
Created
Modified
Stats Distance 1,810 nm / 3,353 km
Max Altitude 0 ft / 0 m
Waypoints 7
Social Downloads 4
Likes 0
Share VATSIM

Download

Looking for another format? Having issues loading an existing format? Contact us
Advertisement - Login to hide

Notes

Generated

Route

UUWW PUSES VADSA SURUT TUKRA AJ UNKL

ID Type Via Altitude Latitude Longitude Leg Dist Tot Dist Heading (true) Name
O UUWW APT - 0 ft / 0 m 55.58804˚ 37.24603˚ - 0 nm - -
PUSES FIX - 0 ft / 0 m 56.98333˚ 43.16833˚ 214 nm 214 nm 65° / 69° -
VADSA FIX - 0 ft / 0 m 58.15000˚ 50.30000˚ 240 nm 454 nm 70° / 76° -
SURUT FIX - 0 ft / 0 m 58.30000˚ 79.68333˚ 921 nm 1376 nm 77° / 102° -
TUKRA FIX - 0 ft / 0 m 57.26167˚ 86.46500˚ 225 nm 1602 nm 103° / 109° -
AJ NDB - 0 ft / 0 m 56.19333˚ 92.40667˚ 205 nm 1808 nm 106° / 111° KRASNOYARSK NDB
O UNKL APT - 0 ft / 0 m 56.17948˚ 92.46587˚ 2 nm 1810 nm 113° / 113° -

Altitude Profile

Advertisement - Login to hide

Weather


0- 5 10 15 20 25 30 35+ Temperature / ° C

Clouds and Precipitation
Forecast for 2018-05-21 18:00 UTC. Updated 18 minutes ago

Ground ~20,000 ft ~40,000 ft Winds

UUWW

Details ICAO UUWW (VKO)
Name VNUKOVO
Region Russia
Timezone Europe/Moscow (UTC+3.0)
Stats Elevation 685 ft / 209 m (AMSL)
Location 55.596061° 37.267664°
Runways 2
Magnetic Variation 11.014° E

METAR

UUWW 211530Z 09006MPS CAVOK 19/03 Q1026 WS R01 R01/000070 R06/000070 NOSIG

Decode

TAF

TAF UUWW 211350Z 2115/2215 06006MPS CAVOK TX20/2115Z TN07/2202Z TEMPO 2115/2118 06008G13MPS BECMG 2206/2208 12007G14MPS BKN030 PROB40 TEMPO 2208/2215 -TSRA BKN020CB

Decode

Departure Runways

ID Width Length Bearing (true) Bearing (mag) Surface Threshold Offset Overrun Length
02 197 ft / 60 m 9,993 ft / 3,046 m 23.36° 12.35° Asphalt 0 ft / 0 m 140 ft / 43 m
06 197 ft / 60 m 9,785 ft / 2,982 m 68.26° 57.25° Asphalt 0 ft / 0 m 250 ft / 76 m
20 197 ft / 60 m 9,993 ft / 3,046 m 203.37° 192.36° Asphalt 0 ft / 0 m 150 ft / 46 m
24 197 ft / 60 m 9,785 ft / 2,982 m 248.29° 237.28° Asphalt 0 ft / 0 m 260 ft / 79 m

UNKL

Details ICAO UNKL (KJA)
Name YEMELYANOVO
Region Russia
Timezone Asia/Krasnoyarsk (UTC+7.0)
Stats Elevation 942 ft / 287 m (AMSL)
Location 56.172946° 92.493276°
Runways 1
Magnetic Variation 4.106° E

METAR

UNKL 211530Z 20004MPS 160V230 9999 SCT052CB 08/04 Q1011 R29/290055 NOSIG RMK QFE733

Decode

TAF

TAF UNKL 211400Z 2115/2215 22006G13MPS 9999 SCT020CB TEMPO 2115/2203 25012G18MPS 3100 -SHRA FEW005 BKN013CB FM220300 26008G15MPS 9000 -SHRA FEW006 BKN013CB TEMPO 2206/2209 27013G19MPS 3100 -SHRA BECMG 2212/2214 28003G10MPS

Decode

Destination Runways

ID Width Length Bearing (true) Bearing (mag) Surface Threshold Offset Overrun Length
11 197 ft / 60 m 12,113 ft / 3,692 m 113.16° 109.05° Asphalt 0 ft / 0 m 235 ft / 72 m
29 197 ft / 60 m 12,113 ft / 3,692 m 293.21° 289.10° Asphalt 0 ft / 0 m 215 ft / 66 m

Popular Alternatives